Time;durP1;ratioP1;P1;durP2;ratioP2;P2;SDS_P1;SDS_P2;PMS_P1;PMS_P2;Temp;Humidity;BMP_temperature;BMP_pressure;BME280_temperature;BME280_humidity;BME280_pressure;Samples;Min_cycle;Max_cycle;Signal;HPM_P1;HPM_P2
2021/03/14 00:00:28;;;;;;;11.95;1.85;;;;;;;;;;4955700;28;20031;-65
2021/03/14 00:02:53;;;;;;;13.05;2.22;;;;;;;;;;4946886;28;20050;-64
2021/03/14 00:05:21;;;;;;;16.98;2.25;;;;;;;;;;4950554;28;20031;-64
2021/03/14 00:07:49;;;;;;;14.30;2.47;;;;;;;;;;4954298;28;20093;-65
2021/03/14 00:10:15;;;;;;;15.23;2.40;;;;;;;;;;4951382;28;20035;-64
2021/03/14 00:12:41;;;;;;;11.85;2.00;;;;;;;;;;4959775;28;20482;-64
2021/03/14 00:15:08;;;;;;;12.95;1.75;;;;;;;;;;4964658;28;20039;-65
2021/03/14 00:17:34;;;;;;;16.92;2.13;;;;;;;;;;4967752;28;20031;-65
2021/03/14 00:20:00;;;;;;;14.75;2.08;;;;;;;;;;4958444;28;20039;-64
2021/03/14 00:22:26;;;;;;;20.10;2.30;;;;;;;;;;4959269;28;20027;-64
2021/03/14 00:24:52;;;;;;;11.77;1.90;;;;;;;;;;4954109;28;20046;-64
2021/03/14 00:27:18;;;;;;;13.93;2.08;;;;;;;;;;4951910;28;20043;-64
2021/03/14 00:29:44;;;;;;;13.75;2.00;;;;;;;;;;4950546;28;20046;-65
2021/03/14 00:32:10;;;;;;;10.55;1.75;;;;;;;;;;4952517;28;20502;-65
2021/03/14 00:34:36;;;;;;;17.17;2.20;;;;;;;;;;4954483;28;20561;-65
2021/03/14 00:37:05;;;;;;;15.68;2.13;;;;;;;;;;4960820;28;20035;-65
2021/03/14 00:39:31;;;;;;;7.65;2.00;;;;;;;;;;4955019;28;20524;-65
2021/03/14 00:41:57;;;;;;;18.25;2.17;;;;;;;;;;4955334;28;20043;-64
2021/03/14 00:44:23;;;;;;;11.00;1.73;;;;;;;;;;4952578;28;20047;-65
2021/03/14 00:46:49;;;;;;;12.48;1.98;;;;;;;;;;4954890;28;20031;-65
2021/03/14 00:49:24;;;;;;;12.95;1.95;;;;;;;;;;4951056;28;20043;-65
2021/03/14 00:51:50;;;;;;;13.23;1.85;;;;;;;;;;4952949;28;20137;-65
2021/03/14 00:54:16;;;;;;;11.13;1.73;;;;;;;;;;4956375;28;20079;-64
2021/03/14 00:56:42;;;;;;;8.02;1.92;;;;;;;;;;4957067;28;20126;-64
2021/03/14 00:59:09;;;;;;;16.58;1.98;;;;;;;;;;4957768;28;20081;-65
2021/03/14 01:01:35;;;;;;;9.50;1.52;;;;;;;;;;4951597;28;20041;-65
2021/03/14 01:04:03;;;;;;;9.68;1.27;;;;;;;;;;4950613;28;20046;-64
2021/03/14 01:06:29;;;;;;;10.75;1.30;;;;;;;;;;4962352;28;20042;-65
2021/03/14 01:08:57;;;;;;;6.43;1.50;;;;;;;;;;4954311;28;20525;-64
2021/03/14 01:11:24;;;;;;;11.00;1.45;;;;;;;;;;4949426;28;20951;-64
2021/03/14 01:13:50;;;;;;;6.22;1.10;;;;;;;;;;4947869;28;20129;-65
2021/03/14 01:16:16;;;;;;;14.43;1.40;;;;;;;;;;4947236;28;20387;-64
2021/03/14 01:18:42;;;;;;;7.68;0.88;;;;;;;;;;4946679;28;20050;-65
2021/03/14 01:21:08;;;;;;;5.15;1.20;;;;;;;;;;4950454;28;20062;-64
2021/03/14 01:23:34;;;;;;;6.28;1.33;;;;;;;;;;4949040;28;20406;-65
2021/03/14 01:26:00;;;;;;;5.70;1.27;;;;;;;;;;4946191;28;20066;-65
2021/03/14 01:28:25;;;;;;;12.50;1.80;;;;;;;;;;4956388;28;20118;-65
2021/03/14 01:30:51;;;;;;;7.18;0.93;;;;;;;;;;4953824;28;20039;-65
2021/03/14 01:33:20;;;;;;;7.82;1.48;;;;;;;;;;4951199;28;20054;-65
2021/03/14 01:35:46;;;;;;;8.85;1.75;;;;;;;;;;4945585;28;20049;-65
2021/03/14 01:38:14;;;;;;;11.35;1.45;;;;;;;;;;4940397;28;20667;-65
2021/03/14 01:40:40;;;;;;;7.18;1.33;;;;;;;;;;4951433;28;20038;-65
2021/03/14 01:43:06;;;;;;;6.75;1.42;;;;;;;;;;4951075;28;20042;-65
2021/03/14 01:45:32;;;;;;;7.97;1.40;;;;;;;;;;4944548;28;20122;-65
2021/03/14 01:48:00;;;;;;;8.23;1.95;;;;;;;;;;4947245;28;20039;-65
2021/03/14 01:50:27;;;;;;;13.80;1.50;;;;;;;;;;4944596;28;20035;-65
2021/03/14 01:52:53;;;;;;;5.93;1.00;;;;;;;;;;4944870;28;20030;-65
2021/03/14 01:55:20;;;;;;;10.63;1.42;;;;;;;;;;4946606;28;20035;-65
2021/03/14 01:57:47;;;;;;;17.83;1.42;;;;;;;;;;4943290;28;20046;-65
2021/03/14 02:00:14;;;;;;;7.57;1.58;;;;;;;;;;4946615;28;20050;-65
2021/03/14 02:02:40;;;;;;;12.57;1.48;;;;;;;;;;4951438;28;20126;-65
2021/03/14 02:05:07;;;;;;;9.23;1.38;;;;;;;;;;4945354;28;20629;-65
2021/03/14 02:07:33;;;;;;;10.32;1.60;;;;;;;;;;4949669;28;20043;-65
2021/03/14 02:09:59;;;;;;;5.45;1.30;;;;;;;;;;4941126;28;21140;-65
2021/03/14 02:12:31;;;;;;;8.60;1.23;;;;;;;;;;4943160;28;20042;-64
2021/03/14 02:14:58;;;;;;;6.40;1.10;;;;;;;;;;4946366;28;20463;-65
2021/03/14 02:17:27;;;;;;;6.00;1.15;;;;;;;;;;4948765;28;20101;-64
2021/03/14 02:19:55;;;;;;;7.90;1.27;;;;;;;;;;4953107;28;20973;-64
2021/03/14 02:22:22;;;;;;;16.45;1.45;;;;;;;;;;4955047;28;20568;-64
2021/03/14 02:24:52;;;;;;;6.57;1.40;;;;;;;;;;4942667;28;20047;-65
2021/03/14 02:27:18;;;;;;;12.75;1.30;;;;;;;;;;4948499;28;20185;-64
2021/03/14 02:29:44;;;;;;;10.45;1.70;;;;;;;;;;4950209;28;20038;-64
2021/03/14 02:32:11;;;;;;;9.38;1.70;;;;;;;;;;4948094;28;20498;-64
2021/03/14 02:34:41;;;;;;;10.20;1.40;;;;;;;;;;4943122;28;20395;-64
2021/03/14 02:37:07;;;;;;;9.25;1.63;;;;;;;;;;4949144;28;20104;-64
2021/03/14 02:39:33;;;;;;;8.82;1.40;;;;;;;;;;4952009;28;20690;-64
2021/03/14 02:42:00;;;;;;;20.85;1.60;;;;;;;;;;4949152;28;20035;-63
2021/03/14 02:44:32;;;;;;;6.80;1.40;;;;;;;;;;4948933;28;20093;-63
2021/03/14 02:46:59;;;;;;;8.30;1.80;;;;;;;;;;4947545;28;20541;-64
2021/03/14 02:49:25;;;;;;;15.60;1.50;;;;;;;;;;4949603;28;20066;-64
2021/03/14 02:51:51;;;;;;;5.15;1.38;;;;;;;;;;4943473;28;20125;-64
2021/03/14 02:54:18;;;;;;;8.70;1.10;;;;;;;;;;4954448;28;20034;-64
2021/03/14 02:56:45;;;;;;;13.18;1.23;;;;;;;;;;4956534;28;20054;-63
2021/03/14 02:59:13;;;;;;;6.72;1.10;;;;;;;;;;4953493;28;20302;-64
2021/03/14 03:01:42;;;;;;;10.35;1.20;;;;;;;;;;4952161;28;20652;-65
2021/03/14 03:04:08;;;;;;;11.50;1.48;;;;;;;;;;4958256;28;20046;-64
2021/03/14 03:06:34;;;;;;;6.40;1.15;;;;;;;;;;4945624;28;20039;-64
2021/03/14 03:09:00;;;;;;;11.52;0.88;;;;;;;;;;4945429;28;20054;-64
2021/03/14 03:11:26;;;;;;;3.30;0.85;;;;;;;;;;4956499;28;20062;-64
2021/03/14 03:13:53;;;;;;;4.75;0.73;;;;;;;;;;4944738;28;20146;-64
2021/03/14 03:16:21;;;;;;;3.00;0.90;;;;;;;;;;4951231;28;20054;-64
2021/03/14 03:18:47;;;;;;;4.72;1.13;;;;;;;;;;4945802;28;20041;-63
2021/03/14 03:21:13;;;;;;;7.10;1.05;;;;;;;;;;4954732;28;20038;-63
2021/03/14 03:23:40;;;;;;;4.38;1.08;;;;;;;;;;4952504;28;20991;-64
2021/03/14 03:26:06;;;;;;;1.85;0.70;;;;;;;;;;4946385;28;20035;-63
2021/03/14 03:28:33;;;;;;;2.45;0.70;;;;;;;;;;4953752;28;20070;-64
2021/03/14 03:31:03;;;;;;;3.38;0.80;;;;;;;;;;4948364;28;20046;-64
2021/03/14 03:33:29;;;;;;;5.80;1.40;;;;;;;;;;4943603;28;20042;-64
2021/03/14 03:35:55;;;;;;;4.90;1.13;;;;;;;;;;4944446;28;20414;-64
2021/03/14 03:38:21;;;;;;;4.88;0.80;;;;;;;;;;4948055;28;20027;-65
2021/03/14 03:40:47;;;;;;;7.20;1.20;;;;;;;;;;4949077;28;20409;-65
2021/03/14 03:43:18;;;;;;;6.05;1.20;;;;;;;;;;4957597;28;20051;-64
2021/03/14 03:45:45;;;;;;;5.72;1.02;;;;;;;;;;4950192;28;20043;-64
2021/03/14 03:48:14;;;;;;;5.32;0.90;;;;;;;;;;4955512;28;20071;-64
2021/03/14 03:50:41;;;;;;;4.70;0.93;;;;;;;;;;4957798;28;20467;-65
2021/03/14 03:53:08;;;;;;;4.90;0.90;;;;;;;;;;4951298;28;20402;-64
2021/03/14 03:55:34;;;;;;;2.70;0.80;;;;;;;;;;4952160;28;20114;-64
2021/03/14 03:58:03;;;;;;;4.43;0.90;;;;;;;;;;4960140;28;20135;-64
2021/03/14 04:00:29;;;;;;;2.95;1.08;;;;;;;;;;4955105;28;20486;-65
2021/03/14 04:02:58;;;;;;;3.28;0.80;;;;;;;;;;4956362;28;20027;-64
2021/03/14 04:05:24;;;;;;;3.75;0.75;;;;;;;;;;4957468;28;20035;-64
2021/03/14 04:07:50;;;;;;;5.90;0.80;;;;;;;;;;4958171;28;20417;-64
2021/03/14 04:10:20;;;;;;;6.28;0.90;;;;;;;;;;4958787;28;20059;-64
2021/03/14 04:12:47;;;;;;;1.75;1.10;;;;;;;;;;4950587;28;20061;-65
2021/03/14 04:15:14;;;;;;;3.10;1.10;;;;;;;;;;4950990;28;20051;-64
2021/03/14 04:17:41;;;;;;;5.60;0.98;;;;;;;;;;4946602;28;22555;-65
2021/03/14 04:20:09;;;;;;;6.22;0.80;;;;;;;;;;4952345;28;20051;-64
2021/03/14 04:22:36;;;;;;;10.60;1.35;;;;;;;;;;4957128;28;20030;-65
2021/03/14 04:25:02;;;;;;;9.70;1.60;;;;;;;;;;4960006;28;20117;-65
2021/03/14 04:27:29;;;;;;;15.75;1.70;;;;;;;;;;4963408;28;20042;-64
2021/03/14 04:29:56;;;;;;;16.65;2.00;;;;;;;;;;4953813;28;20056;-64
2021/03/14 04:32:22;;;;;;;19.60;3.08;;;;;;;;;;4958607;28;20405;-65
2021/03/14 04:34:51;;;;;;;17.67;2.50;;;;;;;;;;4951381;28;20050;-65
2021/03/14 04:37:17;;;;;;;17.40;3.22;;;;;;;;;;4960789;28;20050;-65
2021/03/14 04:39:46;;;;;;;14.20;2.88;;;;;;;;;;4966835;28;20073;-65
2021/03/14 04:42:13;;;;;;;17.75;2.88;;;;;;;;;;4969529;28;20042;-65
2021/03/14 04:44:39;;;;;;;17.83;2.75;;;;;;;;;;4955019;28;20183;-65
2021/03/14 04:47:05;;;;;;;28.63;3.70;;;;;;;;;;4952483;28;20050;-65
2021/03/14 04:49:35;;;;;;;23.45;2.92;;;;;;;;;;4956404;28;20038;-65
2021/03/14 04:52:02;;;;;;;30.73;2.88;;;;;;;;;;4952250;28;20050;-65
2021/03/14 04:54:30;;;;;;;27.08;3.08;;;;;;;;;;4943575;28;20089;-65
2021/03/14 04:56:56;;;;;;;25.48;3.00;;;;;;;;;;4968818;28;20054;-65
2021/03/14 04:59:23;;;;;;;17.02;2.90;;;;;;;;;;4956987;28;20047;-65
2021/03/14 05:01:52;;;;;;;21.02;2.97;;;;;;;;;;4949941;28;20950;-65
2021/03/14 05:04:19;;;;;;;19.40;3.35;;;;;;;;;;4951670;28;20050;-65
2021/03/14 05:06:49;;;;;;;16.40;3.58;;;;;;;;;;4950602;28;20093;-65
2021/03/14 05:09:15;;;;;;;23.80;3.60;;;;;;;;;;4946690;28;20042;-66
2021/03/14 05:11:42;;;;;;;20.13;3.15;;;;;;;;;;4942722;28;20049;-66
2021/03/14 05:14:08;;;;;;;22.48;3.75;;;;;;;;;;4944269;28;20047;-65
2021/03/14 05:16:35;;;;;;;25.00;3.58;;;;;;;;;;4942921;28;20097;-65
2021/03/14 05:19:02;;;;;;;22.17;3.58;;;;;;;;;;4945934;28;20083;-65
2021/03/14 05:21:28;;;;;;;26.60;4.57;;;;;;;;;;4948602;28;20035;-65
2021/03/14 05:23:54;;;;;;;32.78;3.85;;;;;;;;;;4951510;28;20039;-65
2021/03/14 05:26:20;;;;;;;33.28;4.15;;;;;;;;;;4954310;28;20130;-65
2021/03/14 05:28:47;;;;;;;24.88;3.60;;;;;;;;;;4950397;28;20122;-65
2021/03/14 05:31:34;;;;;;;30.50;4.00;;;;;;;;;;4946985;28;20047;-65
2021/03/14 05:34:03;;;;;;;37.75;3.95;;;;;;;;;;4952630;28;21342;-65
2021/03/14 05:36:29;;;;;;;25.88;3.63;;;;;;;;;;4951226;28;20031;-65
2021/03/14 05:38:56;;;;;;;34.60;4.57;;;;;;;;;;4954322;28;20047;-65
2021/03/14 05:41:22;;;;;;;15.95;4.18;;;;;;;;;;4954770;28;20174;-66
2021/03/14 05:43:48;;;;;;;37.30;4.72;;;;;;;;;;4951251;28;20043;-65
2021/03/14 05:46:14;;;;;;;28.88;3.75;;;;;;;;;;4953037;28;20528;-65
2021/03/14 05:48:44;;;;;;;35.40;4.25;;;;;;;;;;4944932;28;20097;-65
2021/03/14 05:51:10;;;;;;;33.78;4.40;;;;;;;;;;4947325;28;20049;-64
2021/03/14 05:53:40;;;;;;;28.58;4.20;;;;;;;;;;4947971;28;20565;-64
2021/03/14 05:56:09;;;;;;;30.20;4.53;;;;;;;;;;4949588;28;20089;-64
2021/03/14 05:58:39;;;;;;;28.95;3.83;;;;;;;;;;4943988;28;20129;-64
2021/03/14 06:01:09;;;;;;;30.48;4.30;;;;;;;;;;4947678;28;20077;-65
2021/03/14 06:03:36;;;;;;;19.35;4.07;;;;;;;;;;4946300;28;20402;-64
2021/03/14 06:06:06;;;;;;;26.00;4.07;;;;;;;;;;4945628;28;20662;-65
2021/03/14 06:08:32;;;;;;;29.30;3.92;;;;;;;;;;4946468;28;20122;-65
2021/03/14 06:10:59;;;;;;;25.58;4.78;;;;;;;;;;4938059;28;20035;-65
2021/03/14 06:13:25;;;;;;;35.28;4.10;;;;;;;;;;4943037;28;20126;-64
2021/03/14 06:15:51;;;;;;;21.50;3.88;;;;;;;;;;4951343;28;20089;-65
2021/03/14 06:18:18;;;;;;;29.02;4.18;;;;;;;;;;4953913;28;20054;-65
2021/03/14 06:20:46;;;;;;;21.08;4.25;;;;;;;;;;4946376;28;20047;-65
2021/03/14 06:23:13;;;;;;;31.38;4.30;;;;;;;;;;4947478;28;20054;-65
2021/03/14 06:25:40;;;;;;;20.75;3.80;;;;;;;;;;4946305;28;20082;-65
2021/03/14 06:28:06;;;;;;;33.97;4.28;;;;;;;;;;4953691;28;20046;-66
2021/03/14 06:30:33;;;;;;;27.70;4.05;;;;;;;;;;4952662;28;20450;-66
2021/03/14 06:33:02;;;;;;;36.15;4.05;;;;;;;;;;4953659;28;20034;-66
2021/03/14 06:35:37;;;;;;;28.38;4.03;;;;;;;;;;4955446;28;20034;-66
2021/03/14 06:38:23;;;;;;;30.45;3.97;;;;;;;;;;4950446;28;20419;-66
2021/03/14 06:40:50;;;;;;;35.22;4.45;;;;;;;;;;4949128;28;20446;-66
2021/03/14 06:43:17;;;;;;;26.73;4.47;;;;;;;;;;4942837;28;20053;-65
2021/03/14 06:45:44;;;;;;;26.25;4.00;;;;;;;;;;4948757;28;20061;-66
2021/03/14 06:48:10;;;;;;;22.40;4.03;;;;;;;;;;4954359;28;20050;-66
2021/03/14 06:50:39;;;;;;;22.58;4.30;;;;;;;;;;4948773;28;20176;-66
2021/03/14 06:53:09;;;;;;;22.45;4.28;;;;;;;;;;4960076;28;20109;-65
2021/03/14 06:55:35;;;;;;;31.95;4.20;;;;;;;;;;4971077;28;20032;-65
2021/03/14 06:58:20;;;;;;;23.30;4.57;;;;;;;;;;4963289;28;20398;-66
2021/03/14 07:01:07;;;;;;;26.98;3.90;;;;;;;;;;4950966;28;20046;-66
2021/03/14 07:03:36;;;;;;;36.55;4.45;;;;;;;;;;4954889;28;20081;-66
2021/03/14 07:06:18;;;;;;;33.30;4.60;;;;;;;;;;4971580;28;20064;-66
2021/03/14 07:08:45;;;;;;;25.50;4.10;;;;;;;;;;4954769;28;20039;-65
2021/03/14 07:11:11;;;;;;;26.02;4.25;;;;;;;;;;4963193;28;20997;-66
2021/03/14 07:13:38;;;;;;;27.15;4.15;;;;;;;;;;4957747;28;20565;-66
2021/03/14 07:16:04;;;;;;;20.40;4.32;;;;;;;;;;4954610;28;20058;-66
2021/03/14 07:18:30;;;;;;;24.63;4.13;;;;;;;;;;4962069;28;20046;-66
2021/03/14 07:20:59;;;;;;;23.65;4.75;;;;;;;;;;4955621;28;20041;-66
2021/03/14 07:23:32;;;;;;;28.50;5.32;;;;;;;;;;4951049;28;20767;-65
2021/03/14 07:25:58;;;;;;;21.33;5.70;;;;;;;;;;4954187;28;20209;-66
2021/03/14 07:28:25;;;;;;;27.05;6.18;;;;;;;;;;4961462;28;20051;-66
2021/03/14 07:30:51;;;;;;;29.73;4.25;;;;;;;;;;4954602;28;20039;-66
2021/03/14 07:33:20;;;;;;;23.73;5.32;;;;;;;;;;4950636;28;20126;-66
2021/03/14 07:35:47;;;;;;;34.13;4.70;;;;;;;;;;4950299;28;20394;-66
2021/03/14 07:38:13;;;;;;;23.80;5.05;;;;;;;;;;4953660;28;20323;-66
2021/03/14 07:40:39;;;;;;;30.27;5.05;;;;;;;;;;4963893;28;20051;-66
2021/03/14 07:43:06;;;;;;;32.30;5.70;;;;;;;;;;4947043;28;20470;-65
2021/03/14 07:45:32;;;;;;;29.85;5.00;;;;;;;;;;4955910;28;20498;-66
2021/03/14 07:47:59;;;;;;;31.23;4.88;;;;;;;;;;4955546;28;20081;-66
2021/03/14 07:50:35;;;;;;;24.08;5.93;;;;;;;;;;4957783;28;20057;-65
2021/03/14 07:53:09;;;;;;;29.17;5.00;;;8.70;64.00;;;;;;4959595;28;20042;-66
2021/03/14 07:55:37;;;;;;;27.25;5.05;;;11.10;62.40;;;;;;4965511;28;20041;-66
2021/03/14 07:58:04;;;;;;;32.60;5.40;;;11.00;62.20;;;;;;4966522;28;20035;-66
2021/03/14 08:00:34;;;;;;;22.08;5.00;;;11.00;62.40;;;;;;4962306;28;20057;-66
2021/03/14 08:03:05;;;;;;;20.23;4.22;;;11.10;62.30;;;;;;4964639;28;20035;-66
2021/03/14 08:05:37;;;;;;;28.27;5.28;;;11.10;62.30;;;;;;4961454;28;20039;-66
2021/03/14 08:08:06;;;;;;;19.58;4.45;;;11.10;62.20;;;;;;4959360;28;20071;-66
2021/03/14 08:10:34;;;;;;;21.80;4.70;;;11.10;62.10;;;;;;4963496;28;20041;-66
2021/03/14 08:13:00;;;;;;;25.48;5.30;;;11.20;62.20;;;;;;4953352;28;21796;-66
2021/03/14 08:15:28;;;;;;;29.33;5.95;;;11.20;62.10;;;;;;4953502;28;20409;-66
2021/03/14 08:17:57;;;;;;;21.33;4.70;;;11.20;61.90;;;;;;4954994;28;20041;-66
2021/03/14 08:20:39;;;;;;;22.05;4.72;;;11.20;61.90;;;;;;4950002;28;20081;-66
2021/03/14 08:23:08;;;;;;;21.67;4.60;;;11.30;61.90;;;;;;4959055;28;20529;-66
2021/03/14 08:25:50;;;;;;;20.27;4.75;;;11.20;61.90;;;;;;4954158;28;20043;-67
2021/03/14 08:28:28;;;;;;;27.67;5.30;;;11.30;62.00;;;;;;4951269;28;20154;-66
2021/03/14 08:30:56;;;;;;;27.92;5.07;;;11.40;62.20;;;;;;4948690;28;20062;-66
2021/03/14 08:33:30;;;;;;;25.65;5.18;;;11.50;62.10;;;;;;4953834;28;20386;-66
2021/03/14 08:36:04;;;;;;;19.55;5.38;;;11.60;61.90;;;;;;4962258;28;20037;-66
2021/03/14 08:39:03;;;;;;;21.60;4.07;;;11.70;61.90;;;;;;4973246;28;20592;-66
2021/03/14 08:41:30;;;;;;;18.20;4.35;;;11.80;61.60;;;;;;4943931;28;20039;-66
2021/03/14 08:44:14;;;;;;;18.40;3.90;;;11.90;61.30;;;;;;4958592;28;20462;-66
2021/03/14 08:46:45;;;;;;;17.08;4.60;;;11.90;61.40;;;;;;4959344;28;20035;-66
2021/03/14 08:49:15;;;;;;;18.88;4.03;;;12.00;61.20;;;;;;4964928;28;20066;-66
2021/03/14 08:51:41;;;;;;;19.77;3.83;;;12.10;61.20;;;;;;4953845;28;20042;-67
2021/03/14 08:54:06;;;;;;;23.50;4.97;;;12.20;61.00;;;;;;4957348;28;20422;-66
2021/03/14 08:56:33;;;;;;;19.23;4.32;;;12.30;60.90;;;;;;4954451;28;20039;-66
2021/03/14 08:59:25;;;;;;;20.05;3.92;;;12.50;60.60;;;;;;4954313;28;20047;-66
2021/03/14 09:01:52;;;;;;;13.93;3.35;;;;;;;;;;4955612;28;20046;-63
2021/03/14 09:04:22;;;;;;;20.13;4.45;;;12.60;60.50;;;;;;4944660;28;20125;-66
2021/03/14 09:06:48;;;;;;;17.23;3.80;;;;;;;;;;4944386;28;20043;-66
2021/03/14 09:09:18;;;;;;;19.33;3.95;;;;;;;;;;4953291;28;20037;-67
2021/03/14 09:11:48;;;;;;;21.55;4.63;;;;;;;;;;4954189;28;20058;-67
2021/03/14 09:14:23;;;;;;;19.17;3.80;;;;;;;;;;4951054;28;20109;-66
2021/03/14 09:16:50;;;;;;;18.77;4.28;;;;;;;;;;4950302;28;20034;-65
2021/03/14 09:19:22;;;;;;;8.32;3.13;;;;;;;;;;4942132;28;20043;-66
2021/03/14 09:21:48;;;;;;;17.02;3.92;;;;;;;;;;4957526;28;20057;-66
2021/03/14 09:24:44;;;;;;;15.30;4.00;;;;;;;;;;4954869;28;20047;-66
2021/03/14 09:27:18;;;;;;;15.60;3.50;;;;;;;;;;4950440;28;20109;-66
2021/03/14 09:29:59;;;;;;;15.73;2.83;;;;;;;;;;4954896;28;20047;-67
2021/03/14 09:32:25;;;;;;;7.03;2.50;;;;;;;;;;4947942;28;20054;-66
2021/03/14 09:35:08;;;;;;;12.27;2.90;;;;;;;;;;4953239;28;20038;-66
2021/03/14 09:37:35;;;;;;;10.40;2.35;;;;;;;;;;4954786;28;20045;-66
2021/03/14 09:40:06;;;;;;;9.65;2.53;;;;;;;;;;4956920;28;20179;-65
2021/03/14 09:42:35;;;;;;;7.95;2.78;;;;;;;;;;4961457;28;20045;-66
2021/03/14 09:45:08;;;;;;;10.70;2.80;;;;;;;;;;4961605;28;20521;-66
2021/03/14 09:47:34;;;;;;;11.05;2.08;;;;;;;;;;4948544;28;20166;-66
2021/03/14 09:50:01;;;;;;;7.47;2.17;;;;;;;;;;4952972;28;20038;-66
2021/03/14 09:52:27;;;;;;;9.70;2.45;;;;;;;;;;4951219;28;20082;-66
2021/03/14 09:54:55;;;;;;;11.05;2.08;;;;;;;;;;4957968;28;20785;-66
2021/03/14 09:57:21;;;;;;;11.55;2.30;;;;;;;;;;4954677;28;20039;-66
2021/03/14 09:59:46;;;;;;;8.57;2.00;;;12.90;60.50;;;;;;4953557;28;20506;-65
2021/03/14 10:02:12;;;;;;;17.00;2.38;;;16.70;51.20;;;;;;4959200;28;20035;-66
2021/03/14 10:05:05;;;;;;;8.10;1.75;;;17.80;49.80;;;;;;4951048;28;20050;-66
2021/03/14 10:07:30;;;;;;;6.90;1.90;;;18.80;46.90;;;;;;4949780;28;20039;-66
2021/03/14 10:09:56;;;;;;;7.50;1.90;;;18.90;45.20;;;;;;4953720;28;20042;-66
2021/03/14 10:12:22;;;;;;;9.07;1.80;;;;;;;;;;4953336;28;20050;-66
2021/03/14 10:14:48;;;;;;;5.68;1.67;;;;;;;;;;4960953;28;20422;-66
2021/03/14 10:17:14;;;;;;;8.50;1.40;;;;;;;;;;4956259;28;20046;-66
2021/03/14 10:19:41;;;;;;;7.45;1.30;;;;;;;;;;4948981;28;20054;-66
2021/03/14 10:22:07;;;;;;;6.60;1.60;;;;;;;;;;4947153;28;20062;-66
2021/03/14 10:24:33;;;;;;;9.68;2.05;;;;;;;;;;4951361;28;20433;-66
2021/03/14 10:27:00;;;;;;;6.75;2.00;;;;;;;;;;4956208;28;20058;-66
2021/03/14 10:29:29;;;;;;;7.90;1.70;;;;;;;;;;4952860;28;20062;-66
2021/03/14 10:31:55;;;;;;;10.73;1.83;;;;;;;;;;4956900;28;20527;-66
2021/03/14 10:34:22;;;;;;;5.45;1.65;;;;;;;;;;4956201;28;20043;-66
2021/03/14 10:36:49;;;;;;;7.97;1.42;;;;;;;;;;4946636;28;20325;-65
2021/03/14 10:39:17;;;;;;;6.80;1.30;;;;;;;;;;4952085;28;20031;-65
2021/03/14 10:41:45;;;;;;;7.68;1.70;;;;;;;;;;4954301;28;20065;-65
2021/03/14 10:44:11;;;;;;;6.47;1.95;;;;;;;;;;4955326;28;20034;-65
2021/03/14 10:46:39;;;;;;;7.53;1.70;;;;;;;;;;4952359;28;20053;-65
2021/03/14 10:49:09;;;;;;;6.85;1.65;;;;;;;;;;4956817;28;20034;-65
2021/03/14 10:51:36;;;;;;;7.82;1.90;;;;;;;;;;4952467;28;20049;-65
2021/03/14 10:54:12;;;;;;;7.97;1.58;;;;;;;;;;4954038;28;20035;-65
2021/03/14 10:56:39;;;;;;;7.03;1.77;;;;;;;;;;4957989;28;20073;-65
2021/03/14 10:59:06;;;;;;;5.70;1.63;;;;;;;;;;4956940;28;20046;-65
2021/03/14 11:01:42;;;;;;;5.95;1.65;;;18.90;44.80;;;;;;4950996;28;20057;-65
2021/03/14 11:04:10;;;;;;;6.50;1.40;;;16.90;42.20;;;;;;4951080;28;20046;-65
2021/03/14 11:06:38;;;;;;;3.63;1.85;;;16.30;43.10;;;;;;4956770;28;20066;-66
2021/03/14 11:09:10;;;;;;;9.10;1.92;;;16.00;44.40;;;;;;4949861;28;20035;-65
2021/03/14 11:11:46;;;;;;;12.45;2.50;;;16.10;45.60;;;;;;4956590;28;20089;-65
2021/03/14 11:14:37;;;;;;;8.88;1.67;;;16.70;45.00;;;;;;4944793;28;20035;-65
2021/03/14 11:17:17;;;;;;;4.32;1.25;;;17.00;44.00;;;;;;4947575;28;20065;-66
2021/03/14 11:19:46;;;;;;;9.07;2.15;;;17.50;45.00;;;;;;4950619;28;20045;-65
2021/03/14 11:22:17;;;;;;;9.60;1.75;;;18.30;43.60;;;;;;4959794;28;20121;-66
2021/03/14 11:24:45;;;;;;;6.80;1.42;;;19.50;42.80;;;;;;4946691;28;20151;-65
2021/03/14 11:27:12;;;;;;;5.75;1.58;;;20.80;40.90;;;;;;4950065;28;20050;-66
2021/03/14 11:29:41;;;;;;;8.30;1.58;;;21.40;38.60;;;;;;4950513;28;20039;-66
2021/03/14 11:32:13;;;;;;;4.65;1.65;;;;;;;;;;4952829;28;20038;-65
2021/03/14 11:34:39;;;;;;;6.30;1.52;;;;;;;;;;4955395;28;20061;-65
2021/03/14 11:37:05;;;;;;;3.08;1.20;;;;;;;;;;4952145;28;20046;-65
2021/03/14 11:39:31;;;;;;;6.78;1.20;;;;;;;;;;4945591;28;20031;-65
2021/03/14 11:41:57;;;;;;;10.63;1.63;;;;;;;;;;4952849;28;20385;-65
2021/03/14 11:44:23;;;;;;;4.93;1.10;;;;;;;;;;4959165;28;21074;-65
2021/03/14 11:46:49;;;;;;;2.58;0.82;;;21.40;37.60;;;;;;4948370;28;20045;-69
2021/03/14 11:49:17;;;;;;;1.70;0.80;;;17.40;40.40;;;;;;4953151;28;20031;-68
2021/03/14 11:51:43;;;;;;;3.72;1.00;;;;;;;;;;4955449;28;20513;-66
2021/03/14 11:54:11;;;;;;;3.38;1.33;;;16.50;41.50;;;;;;4953668;28;20040;-65
2021/03/14 11:56:37;;;;;;;4.97;1.15;;;14.90;44.50;;;;;;4954888;28;20066;-65
2021/03/14 11:59:03;;;;;;;5.03;1.40;;;;;;;;;;4936048;28;20196;-65
2021/03/14 12:01:29;;;;;;;4.40;1.23;;;14.40;46.20;;;;;;4942424;28;20053;-65
2021/03/14 12:03:54;;;;;;;6.20;1.30;;;14.10;49.10;;;;;;4950685;28;20035;-65
2021/03/14 12:06:21;;;;;;;5.22;1.55;;;;;;;;;;4955039;28;20049;-65
2021/03/14 12:08:47;;;;;;;5.07;1.40;;;;;;;;;;4951981;28;20662;-65
2021/03/14 12:11:16;;;;;;;7.65;1.40;;;;;;;;;;4947110;28;20045;-65
2021/03/14 12:13:42;;;;;;;8.38;1.70;;;;;;;;;;4946878;28;20435;-65
2021/03/14 12:16:09;;;;;;;5.40;1.65;;;;;;;;;;4949625;28;20121;-65
2021/03/14 12:18:35;;;;;;;5.78;1.80;;;;;;;;;;4951952;28;20031;-65
2021/03/14 12:21:01;;;;;;;7.50;2.00;;;;;;;;;;4945076;28;20043;-65
2021/03/14 12:23:28;;;;;;;6.10;1.77;;;;;;;;;;4952050;28;20724;-65
2021/03/14 12:25:55;;;;;;;8.75;1.70;;;;;;;;;;4954399;28;20035;-63
2021/03/14 12:28:21;;;;;;;6.97;1.90;;;;;;;;;;4944672;28;20042;-67
2021/03/14 12:30:48;;;;;;;6.90;1.77;;;;;;;;;;4948395;28;20101;-65
2021/03/14 12:33:16;;;;;;;10.05;2.03;;;;;;;;;;4958881;28;20054;-66
2021/03/14 12:35:42;;;;;;;9.93;2.28;;;;;;;;;;4963821;28;20042;-66
2021/03/14 12:38:08;;;;;;;8.90;2.38;;;;;;;;;;4960906;28;20097;-66
2021/03/14 12:40:34;;;;;;;8.93;1.98;;;;;;;;;;4957379;28;20121;-66
2021/03/14 12:43:00;;;;;;;6.57;1.98;;;;;;;;;;4961092;28;20271;-66
2021/03/14 12:45:26;;;;;;;3.83;1.98;;;;;;;;;;4957139;28;20049;-66
2021/03/14 12:47:52;;;;;;;13.20;2.20;;;;;;;;;;4956015;28;20126;-66
2021/03/14 12:50:18;;;;;;;5.15;1.77;;;;;;;;;;4953923;28;20046;-66
2021/03/14 12:52:44;;;;;;;5.28;1.92;;;;;;;;;;4957948;28;20043;-66
2021/03/14 12:55:11;;;;;;;7.35;2.40;;;;;;;;;;4964300;28;20057;-66
2021/03/14 12:57:37;;;;;;;8.38;2.35;;;;;;;;;;4957795;28;20038;-66
2021/03/14 13:00:07;;;;;;;10.32;2.38;;;;;;;;;;4960526;28;20181;-66
2021/03/14 13:02:33;;;;;;;9.90;2.20;;;;;;;;;;4963234;28;20109;-66
2021/03/14 13:05:00;;;;;;;9.65;2.33;;;;;;;;;;4957387;28;20027;-67
2021/03/14 13:07:26;;;;;;;9.52;2.38;;;;;;;;;;4957690;28;20114;-67
2021/03/14 13:09:52;;;;;;;10.38;2.13;;;;;;;;;;4954436;28;20174;-67
2021/03/14 13:12:18;;;;;;;11.57;2.38;;;;;;;;;;4960462;28;20070;-66
2021/03/14 13:14:44;;;;;;;9.07;2.00;;;;;;;;;;4957964;28;20043;-66
2021/03/14 13:17:10;;;;;;;11.45;2.80;;;;;;;;;;4954426;28;20043;-66
2021/03/14 13:19:36;;;;;;;8.73;2.10;;;;;;;;;;4954238;28;20125;-66
2021/03/14 13:22:02;;;;;;;7.07;2.13;;;;;;;;;;4949568;28;20074;-65
2021/03/14 13:24:30;;;;;;;9.20;2.20;;;;;;;;;;4952976;28;20420;-66
2021/03/14 13:26:59;;;;;;;12.30;2.03;;;;;;;;;;4956978;28;20058;-66
2021/03/14 13:29:25;;;;;;;18.10;3.20;;;;;;;;;;4952801;28;20568;-65
2021/03/14 13:31:51;;;;;;;14.50;2.50;;;;;;;;;;4955321;28;20125;-65
2021/03/14 13:34:16;;;;;;;9.27;2.40;;;;;;;;;;4938566;28;20061;-66
2021/03/14 13:36:42;;;;;;;8.90;2.58;;;;;;;;;;4947476;28;20072;-66
2021/03/14 13:39:08;;;;;;;10.00;2.20;;;;;;;;;;4945349;28;20046;-66
2021/03/14 13:41:34;;;;;;;14.00;2.38;;;;;;;;;;4951084;28;20063;-66
2021/03/14 13:44:00;;;;;;;11.77;2.70;;;;;;;;;;4943884;28;20383;-66
2021/03/14 13:46:26;;;;;;;14.80;2.20;;;;;;;;;;4952628;28;20401;-64
2021/03/14 13:48:52;;;;;;;9.45;2.15;;;;;;;;;;4947571;28;20693;-63
2021/03/14 13:51:18;;;;;;;6.65;1.80;;;;;;;;;;4946870;28;20043;-64
2021/03/14 13:53:44;;;;;;;6.53;1.95;;;;;;;;;;4942945;28;20034;-66
2021/03/14 13:56:12;;;;;;;9.30;2.17;;;14.10;50.40;;;;;;4937247;28;20513;-66
2021/03/14 13:58:38;;;;;;;10.40;2.08;;;;;;;;;;4949621;28;20261;-66
2021/03/14 14:01:05;;;;;;;7.70;2.30;;;;;;;;;;4946154;28;20549;-64
2021/03/14 14:03:33;;;;;;;8.20;1.80;;;;;;;;;;4946352;28;20041;-65
2021/03/14 14:05:59;;;;;;;15.57;2.47;;;;;;;;;;4947287;28;20035;-65
2021/03/14 14:08:25;;;;;;;16.35;2.17;;;;;;;;;;4941401;28;20042;-65
2021/03/14 14:10:51;;;;;;;9.18;1.95;;;;;;;;;;4940505;28;20027;-65
2021/03/14 14:13:17;;;;;;;9.35;2.10;;;;;;;;;;4943029;28;20046;-65
2021/03/14 14:15:42;;;;;;;8.40;1.75;;;;;;;;;;4938937;28;20308;-66
2021/03/14 14:18:08;;;;;;;7.22;1.60;;;;;;;;;;4942438;28;20046;-66
2021/03/14 14:20:40;;;;;;;8.68;1.80;;;;;;;;;;4953463;28;20092;-66